KAXS/AXS METAR and TAF weather

Enter ICAO airport designator
Station Type Date Time Source
KAXS METAR 2019/02/16 02:55 UTC NOAA

KAXS 160255Z AUTO 03013KT 10SM SCT018 M01/M05 A3000 RMK AO2 T10151053


Station Type Date Time Source
KAXS Decoded METAR 2019/02/16 02:55 UTC NOAA

Altus, Altus/Quartz Mountain Regional Airport, OK, United States (KAXS) 34-41-55N 099-20-17W
Feb 15, 2019 - 09:55 PM EST / 2019.02.16 0255 UTC
Wind: from the NNE (030 degrees) at 15 MPH (13 KT):0
Visibility: 10 mile(s):0
Sky conditions: partly cloudy
Temperature: 29.3 F (-1.5 C)
Windchill: 17 F (-8 C):1
Dew Point: 22.5 F (-5.3 C)
Relative Humidity: 75%
Pressure (altimeter): 30 in. Hg (1015 hPa)
ob: KAXS 160255Z AUTO 03013KT 10SM SCT018 M01/M05 A3000 RMK AO2 T10151053
cycle: 3

Station Type Date Time Source
KAXS TAF UTC NOAA

Error!


Example: see airport list